Tiempo atmosférico en la estación meteorológica de La Oliva, Puerto de Corralejo, Las Palmas (6 m.)



Fecha
DESCASC
Temp. máxima en grados centígrados (hora)
DESCASC
Temp. mínima en grados centígrados (hora)
DESCASC
Temp. media en grados centígrados
DESCASC
Racha de viento máxima en m/sg (hora)
DESCASC
Velocidad máxima media en intervalos de 10 minutos(hora)
DESCASC
Precipitaciones diarias en mm
DESCASC
Precipitaciones de 00:00 a 06:00 en mm
DESCASC
Precipitaciones de 06:00 a 12:00 en mm
DESCASC
Precipitaciones de 12:00 a 18:00 en mm
DESCASC
Precipitaciones de 18:00 a 24:00 en mm
DESCASC
07-01-2021 22.7 (10:40) 17.5 (00:00) 20.1 24.44 (17:00) 16.94 (11:40) 2.4 0 0 2.4 0
06-01-2021 22.6 (13:00) 17.3 (00:00) 19.9 25.28 (11:00) 16.39 (13:30) 3.2 0 0 3.2 0
05-01-2021 22.6 (13:50) 16.7 (00:00) 19.7 13.61 (03:10) 9.72 (03:10) 0 0 0 0 0
08-01-2021 21.4 (00:00) 15.9 (00:00) 18.6 25.56 (02:00) 15.28 (02:10) 4.6 0 0 3 1.6
29-12-2020 21.2 (14:40) 17.3 (00:00) 19.3 8.61 (21:00) 6.39 (17:50) 0 0 0 0 0
27-12-2020 20.7 (14:40) 17.9 (00:00) 19.3 12.5 (13:00) 9.44 (11:00) 0 0 0 0 0
28-12-2020 20.7 (12:50) 17.7 (00:00) 19.2 10.28 (14:00) 7.22 (20:50) 0 0 0 0 0
23-12-2020 20.5 (14:20) 17 (00:00) 18.8 18.33 (13:00) 12.78 (11:20) 0 0 0 0 0
21-01-2021 20.4 (14:20) 16.8 (00:00) 18.6 7.22 (16:00) 4.72 (16:10) 0 0 0 0 0
26-12-2020 20.4 (14:20) 18.1 (00:00) 19.3 8.89 (13:00) 6.39 (10:30) 0 0 0 0 0
25-12-2020 20.3 (16:10) 18.8 (00:00) 19.5 15.56 (02:00) 11.39 (01:30) 0 0 0 0 0
13-01-2021 20.2 (14:10) 15.9 (00:00) 18.1 11.39 (10:00) 6.67 (05:10) 0 0 0 0 0
24-12-2020 20.1 (00:00) 18.9 (00:00) 19.5 17.5 (09:00) 12.22 (09:30) 0 0 0 0 0
30-12-2020 19.8 (14:30) 16.1 (00:00) 17.9 9.17 (07:00) 6.94 (06:30) 0 0 0 0 0
20-01-2021 19.5 (09:20) 14.3 (00:00) 16.9 8.89 (15:00) 5.28 (15:40) 0 0 0 0 0
18-01-2021 19.5 (14:00) 16.1 (00:00) 17.8 6.94 (15:00) 4.72 (15:00) 0 0 0 0 0
02-01-2021 19.4 (12:40) 16.8 (00:00) 18.1 12.78 (11:00) 8.33 (13:30) 0 0 0 0 0
17-01-2021 19.2 (12:40) 16.3 (00:00) 17.8 8.61 (08:10) 6.39 (03:20) 0 0 0 0 0
31-12-2020 19 (12:00) 15.4 (00:00) 17.2 12.78 (19:00) 9.44 (17:40) 0 0 0 0 0
16-01-2021 18.9 (12:50) 16.3 (00:00) 17.6 12.22 (10:00) 8.89 (10:00) 0 0 0 0 0
01-01-2021 18.9 (13:00) 17.3 (00:00) 18.1 11.39 (17:20) 9.44 (01:50) 0 0 0 0 0
12-01-2021 18.7 (15:10) 16.2 (00:00) 17.5 11.11 (21:00) 8.61 (05:00) 0 0 0 0 0
14-01-2021 18.6 (12:50) 16.2 (07:40) 17.4 14.17 (23:00) 10.28 (20:30) 0 0 0 0 0
19-01-2021 18.6 (14:20) 15.1 (00:00) 16.9 7.5 (16:00) 5.28 (11:30) 0 0 0 0 0
11-01-2021 18.4 (15:30) 14.9 (00:00) 16.6 15 (11:00) 10 (11:10) 0 0 0 0 0
03-01-2021 18.3 (12:00) 16.7 (00:00) 17.5 10.56 (10:00) 7.5 (10:00) 0 0 0 0 0
15-01-2021 18.1 (13:20) 16.3 (00:00) 17.2 14.72 (08:00) 11.11 (10:20) 0 0 0 0 0
10-01-2021 18 (11:20) 14.7 (02:00) 16.3 16.11 (18:50) 11.67 (22:40) 3 0.6 0.2 2 0.2
04-01-2021 18 (13:50) 15.6 (00:00) 16.8 10.56 (15:00) 7.5 (15:10) 0 0 0 0 0
09-01-2021 17.4 (13:50) 14.8 (00:00) 16.1 17.78 (11:50) 11.39 (11:50) 1 0.6 0 0.4 0

Gráficas

Temp. máximas Temp. mínimas Temp. medias Precipitaciones Rachas de viento máximas Velocidades máximas media en intervalos de 10 minutos

Datos horarios

Fecha y hora oficial Temperatura (ºC) Velocidad del viento (km/h) Dirección del viento Racha (km/h) Dirección de racha Precipitación (mm) Presión (hPa) Tendencia (hPa) Humedad (%)
2021-01-21 23:00:00 18.3 6 Norte 14 Norte 0 -- -- 85
2021-01-21 22:00:00 18.4 8 Norte 13 Norte 0 -- -- 84
2021-01-21 21:00:00 18.5 8 Norte 14 Norte 0 -- -- 85
2021-01-21 20:00:00 18.7 10 Norte 17 Norte 0 -- -- 85
2021-01-21 19:00:00 18.8 13 Norte 20 Noroeste 0 -- -- 83
2021-01-21 18:00:00 19.3 13 Noroeste 17 Norte 0 -- -- 79
2021-01-21 17:00:00 19.6 11 Noroeste 24 Noroeste 0 -- -- 75
2021-01-21 16:00:00 19.7 17 Noroeste 26 Noroeste 0 -- -- 74
2021-01-21 15:00:00 20 15 Noroeste 22 Noroeste 0 -- -- 74
2021-01-21 14:00:00 20.1 13 Noroeste 17 Noroeste 0 -- -- 71
2021-01-21 13:00:00 20 10 Noroeste 19 Noroeste 0 -- -- 70
2021-01-21 12:00:00 19.4 7 Noroeste 19 Norte 0 -- -- 74
2021-01-21 11:00:00 18.7 12 Norte 17 Norte 0 -- -- 79
2021-01-21 10:00:00 18.3 12 Norte 19 Norte 0 -- -- 78
2021-01-21 09:00:00 18 8 Norte 15 Noroeste 0 -- -- 78
2021-01-21 08:00:00 17.5 5 Noroeste 14 Norte 0 -- -- 79
2021-01-21 07:00:00 17.3 4 Sur 8 Sudoeste 0 -- -- 80
2021-01-21 06:00:00 17 3 Sur 10 Sur 0 -- -- 81
2021-01-21 05:00:00 17.2 5 Sudeste 9 Este 0 -- -- 79
2021-01-21 04:00:00 17.5 7 Nordeste 13 Nordeste 0 -- -- 79
2021-01-21 03:00:00 17.7 10 Nordeste 16 Norte 0 -- -- 78
2021-01-21 02:00:00 17.8 11 Norte 17 Norte 0 -- -- 77
2021-01-21 01:00:00 18 13 Norte 20 Norte 0 -- -- 76
2021-01-21 00:00:00 18 13 Norte 18 Noroeste 0 -- -- 76
2021-01-20 23:00:00 17.9 13 Noroeste 18 Noroeste 0 -- -- 73
2021-01-20 22:00:00 17.2 5 Oeste 8 Oeste 0 -- -- 73
2021-01-20 21:00:00 16.9 5 Sudoeste 8 Sudoeste 0 -- -- 72
2021-01-20 20:00:00 17.3 5 Sudoeste 12 Oeste 0 -- -- 71
2021-01-20 19:00:00 17.7 9 Oeste 21 Oeste 0 -- -- 69
2021-01-20 18:00:00 18.5 14 Oeste 24 Oeste 0 -- -- 65
2021-01-20 17:00:00 18.9 16 Oeste 26 Noroeste 0 -- -- 64
2021-01-20 16:00:00 19.2 18 Oeste 30 Oeste 0 -- -- 63
2021-01-20 15:00:00 19.2 18 Noroeste 32 Oeste 0 -- -- 66
2021-01-20 14:00:00 18.7 5 Nordeste 16 Sudeste 0 -- -- 72
2021-01-20 13:00:00 18.6 13 Este 20 Sudeste 0 -- -- 71
2021-01-20 12:00:00 18.6 14 Sudeste 18 Este 0 -- -- 70
2021-01-20 11:00:00 18.5 13 Este 15 Este 0 -- -- 68
2021-01-20 10:00:00 18.8 5 Este 8 Norte 0 -- -- 69
2021-01-20 09:00:00 17.7 4 Sur 9 Oeste 0 -- -- 73
2021-01-20 08:00:00 14.9 5 Sudoeste 8 Sudoeste 0 -- -- 80
2021-01-20 07:00:00 14.9 5 Sudoeste 10 Sudoeste 0 -- -- 80
2021-01-20 06:00:00 14.6 8 Oeste 11 Sudoeste 0 -- -- 80
2021-01-20 05:00:00 14.8 7 Oeste 10 Oeste 0 -- -- 83
2021-01-20 04:00:00 14.6 8 Oeste 13 Oeste 0 -- -- 83
2021-01-20 03:00:00 14.8 8 Sudoeste 13 Sudoeste 0 -- -- 82
2021-01-20 02:00:00 14.5 3 Sur 11 Sur 0 -- -- 81
2021-01-20 01:00:00 14.7 8 Sudoeste 12 Sudoeste 0 -- -- 81
2021-01-20 00:00:00 15.2 4 Sur 8 Sudoeste 0 -- -- 80
2021-01-19 23:00:00 15.1 5 Sudoeste 10 Sur 0 -- -- 79
2021-01-19 22:00:00 15.5 5 Sudoeste 10 Sudeste 0 -- -- 77
2021-01-19 21:00:00 16 5 Sur 8 Sur 0 -- -- 76
2021-01-19 20:00:00 16.1 2 Sur 11 Sudeste 0 -- -- 75
2021-01-19 19:00:00 16.9 8 Sudeste 12 Sudeste 0 -- -- 73
2021-01-19 18:00:00 17.3 9 Sudeste 17 Este 0 -- -- 71
2021-01-19 17:00:00 17.5 16 Sudeste 25 Sudeste 0 -- -- 71
2021-01-19 16:00:00 18.1 19 Este 27 Sudeste 0 -- -- 68
2021-01-19 15:00:00 18.2 15 Este 22 Sudeste 0 -- -- 66
2021-01-19 14:00:00 18.1 15 Sudeste 22 Sudeste 0 -- -- 67
2021-01-19 13:00:00 18.2 17 Sudeste 26 Sudeste 0 -- -- 65
2021-01-19 12:00:00 18.2 18 Sudeste 24 Sudeste 0 -- -- 67
2021-01-19 11:00:00 17.7 16 Este 24 Este 0 -- -- 67
2021-01-19 10:00:00 17.4 16 Este 24 Este 0 -- -- 69
2021-01-19 09:00:00 16.6 15 Nordeste 20 Nordeste 0 -- -- 73
2021-01-19 08:00:00 16.4 16 Nordeste 21 Nordeste 0 -- -- 74
2021-01-19 07:00:00 16.4 12 Nordeste 19 Nordeste 0 -- -- 76
2021-01-19 06:00:00 16.1 11 Este 17 Este 0 -- -- 74
2021-01-19 05:00:00 16.2 13 Este 18 Este 0 -- -- 76
2021-01-19 04:00:00 16.5 14 Nordeste 19 Este 0 -- -- 78
2021-01-19 03:00:00 16.5 14 Nordeste 22 Nordeste 0 -- -- 76
2021-01-19 02:00:00 16.6 14 Este 21 Nordeste 0 -- -- 75
2021-01-19 01:00:00 16.8 14 Nordeste 22 Nordeste 0 -- -- 75
2021-01-19 00:00:00 16.7 14 Nordeste 21 Nordeste 0 -- -- 76
2021-01-18 23:00:00 16.8 13 Nordeste 19 Nordeste 0 -- -- 75
2021-01-18 22:00:00 17 12 Este 16 Este 0 -- -- 74
2021-01-18 21:00:00 17.2 9 Este 13 Este 0 -- -- 72
2021-01-18 20:00:00 17.2 8 Este 13 Este 0 -- -- 70
2021-01-18 19:00:00 17.3 8 Este 17 Sudeste 0 -- -- 70
2021-01-18 18:00:00 18 10 Este 19 Este 0 -- -- 67
2021-01-18 17:00:00 18.3 13 Este 20 Este 0 -- -- 67
2021-01-18 16:00:00 18.7 14 Este 22 Este 0 -- -- 66
2021-01-18 15:00:00 18.9 17 Este 25 Este 0 -- -- 66
2021-01-18 14:00:00 19.5 12 Este 22 Este 0 -- -- 66
2021-01-18 13:00:00 18.9 13 Este 21 Este 0 -- -- 68
2021-01-18 12:00:00 18.8 12 Este 19 Este 0 -- -- 69
2021-01-18 11:00:00 18.3 12 Este 18 Este 0 -- -- 69
2021-01-18 10:00:00 18 10 Este 15 Este 0 -- -- 71
2021-01-18 09:00:00 17.1 9 Nordeste 15 Nordeste 0 -- -- 75
2021-01-18 08:00:00 16.2 9 Nordeste 14 Este 0 -- -- 79
2021-01-18 07:00:00 16.2 10 Nordeste 17 Nordeste 0 -- -- 80
2021-01-18 06:00:00 16.3 12 Nordeste 17 Nordeste 0 -- -- 79
2021-01-18 05:00:00 16.3 9 Nordeste 15 Nordeste 0 -- -- 79
2021-01-18 04:00:00 16.3 13 Nordeste 17 Este 0 -- -- 79
2021-01-18 03:00:00 16.3 14 Nordeste 20 Nordeste 0 -- -- 78
2021-01-18 02:00:00 16.4 15 Nordeste 20 Nordeste 0 -- -- 77
2021-01-18 01:00:00 16.1 10 Este 15 Este 0 -- -- 77
2021-01-18 00:00:00 16.4 9 Nordeste 14 Nordeste 0 -- -- 75
2021-01-17 23:00:00 16.5 12 Nordeste 18 Nordeste 0 -- -- 77
2021-01-17 22:00:00 16.6 12 Nordeste 19 Este 0 -- -- 78
2021-01-17 21:00:00 16.8 14 Nordeste 22 Nordeste 0 -- -- 78
2021-01-17 20:00:00 17 14 Nordeste 18 Este 0 -- -- 76
2021-01-17 19:00:00 17.1 7 Nordeste 13 Este 0 -- -- 74
2021-01-17 18:00:00 17.4 8 Nordeste 14 Nordeste 0 -- -- 73
2021-01-17 17:00:00 17.6 10 Nordeste 15 Nordeste 0 -- -- 71
2021-01-17 16:00:00 18.4 8 Sudeste 16 Sudeste 0 -- -- 67
2021-01-17 15:00:00 18.8 13 Este 21 Sudeste 0 -- -- 67
2021-01-17 14:00:00 18.7 17 Este 25 Este 0 -- -- 69
2021-01-17 13:00:00 18.7 17 Este 26 Este 0 -- -- 67
2021-01-17 12:00:00 17.7 17 Nordeste 24 Nordeste 0 -- -- 68
2021-01-17 11:00:00 18 16 Nordeste 30 Nordeste 0 -- -- 67
2021-01-17 10:00:00 17.9 14 Nordeste 28 Nordeste 0 -- -- 65
2021-01-17 09:00:00 17.1 18 Nordeste 31 Nordeste 0 -- -- 69
2021-01-17 08:00:00 17.1 21 Nordeste 30 Norte 0 -- -- 68
2021-01-17 07:00:00 16.8 18 Norte 28 Norte 0 -- -- 70
2021-01-17 06:00:00 16.8 22 Nordeste 29 Nordeste 0 -- -- 71
2021-01-17 05:00:00 16.6 17 Nordeste 28 Nordeste 0 -- -- 68
2021-01-17 04:00:00 16.7 23 Nordeste 31 Nordeste 0 -- -- 70
2021-01-17 03:00:00 16.7 21 Nordeste 31 Nordeste 0 -- -- 69
2021-01-17 02:00:00 16.6 18 Nordeste 28 Nordeste 0 -- -- 69
2021-01-17 01:00:00 16.5 17 Nordeste 23 Nordeste 0 -- -- 69
2021-01-17 00:00:00 16.4 13 Nordeste 20 Nordeste 0 -- -- 68
2021-01-16 23:00:00 16.4 16 Nordeste 22 Norte 0 -- -- 68
2021-01-16 22:00:00 16.4 16 Norte 31 Nordeste 0 -- -- 68
2021-01-16 21:00:00 16.8 22 Norte 37 Nordeste 0 -- -- 68
2021-01-16 20:00:00 16.9 22 Nordeste 34 Nordeste 0 -- -- 65
2021-01-16 19:00:00 17.2 19 Nordeste 34 Nordeste 0 -- -- 65
2021-01-16 18:00:00 17.5 26 Nordeste 35 Nordeste 0 -- -- 63
2021-01-16 17:00:00 17.8 25 Nordeste 36 Nordeste 0 -- -- 63
2021-01-16 16:00:00 18.1 24 Este 34 Nordeste 0 -- -- 65
2021-01-16 15:00:00 18.7 23 Este 33 Nordeste 0 -- -- 61
2021-01-16 14:00:00 18.7 23 Nordeste 35 Nordeste 0 -- -- 60
2021-01-16 13:00:00 18.8 21 Nordeste 31 Nordeste 0 -- -- 62
2021-01-16 12:00:00 18.4 22 Nordeste 33 Nordeste 0 -- -- 65
2021-01-16 11:00:00 18.1 27 Nordeste 40 Nordeste 0 -- -- 66
2021-01-16 10:00:00 17.6 32 Nordeste 44 Nordeste 0 -- -- 63
2021-01-16 09:00:00 17.2 23 Nordeste 33 Norte 0 -- -- 67
2021-01-16 08:00:00 16.8 24 Nordeste 29 Nordeste 0 -- -- 69
2021-01-16 07:00:00 16.6 21 Nordeste 31 Nordeste 0 -- -- 67
2021-01-16 06:00:00 16.7 18 Norte 25 Norte 0 -- -- 67
2021-01-16 05:00:00 16.5 22 Nordeste 28 Norte 0 -- -- 67
2021-01-16 04:00:00 16.6 22 Nordeste 37 Nordeste 0 -- -- 70
2021-01-16 03:00:00 16.5 19 Nordeste 29 Norte 0 -- -- 67
2021-01-16 02:00:00 16.6 21 Norte 32 Norte 0 -- -- 66
2021-01-16 01:00:00 16.7 27 Nordeste 36 Nordeste 0 -- -- 66
2021-01-16 00:00:00 16.6 24 Nordeste 39 Nordeste 0 -- -- 66
2021-01-15 23:00:00 16.5 21 Nordeste 39 Norte 0 -- -- 63
2021-01-15 22:00:00 17 20 Nordeste 29 Nordeste 0 -- -- 69
2021-01-15 21:00:00 16.9 20 Nordeste 41 Norte 0 -- -- 62
2021-01-15 20:00:00 16.8 28 Nordeste 41 Nordeste 0 -- -- 61
2021-01-15 19:00:00 17.5 24 Norte 37 Norte 0 -- -- 65
2021-01-15 18:00:00 17.3 25 Nordeste 35 Nordeste 0 -- -- 62
2021-01-15 17:00:00 17.6 27 Nordeste 41 Nordeste 0 -- -- 61
2021-01-15 16:00:00 17.6 27 Nordeste 38 Nordeste 0 -- -- 57
2021-01-15 15:00:00 18 19 Nordeste 31 Nordeste 0 -- -- 56
2021-01-15 14:00:00 17.8 22 Nordeste 35 Nordeste 0 -- -- 61
2021-01-15 13:00:00 17.9 21 Norte 31 Nordeste 0 -- -- 58
2021-01-15 12:00:00 17.6 17 Nordeste 31 Nordeste 0 -- -- 60
2021-01-15 11:00:00 17 28 Nordeste 48 Nordeste 0 -- -- 61
2021-01-15 10:00:00 17.1 28 Norte 41 Norte 0 -- -- 64
2021-01-15 09:00:00 16.8 26 Nordeste 42 Norte 0 -- -- 58
2021-01-15 08:00:00 16.7 33 Nordeste 53 Nordeste 0 -- -- 65
2021-01-15 07:00:00 16.7 26 Nordeste 41 Nordeste 0 -- -- 62
2021-01-15 06:00:00 16.4 27 Nordeste 41 Nordeste 0 -- -- 60
2021-01-15 05:00:00 16.4 27 Nordeste 38 Nordeste 0 -- -- 59
2021-01-15 04:00:00 16.7 23 Nordeste 37 Nordeste 0 -- -- 64
2021-01-15 03:00:00 16.6 28 Nordeste 41 Nordeste 0 -- -- 62
2021-01-15 02:00:00 16.5 28 Nordeste 37 Nordeste 0 -- -- 63
2021-01-15 01:00:00 16.6 23 Norte 39 Nordeste 0 -- -- 60
2021-01-15 00:00:00 16.5 22 Nordeste 41 Norte 0 -- -- 60
2021-01-14 23:00:00 16.8 35 Nordeste 51 Norte 0 -- -- 60
2021-01-14 22:00:00 16.8 23 Nordeste 37 Norte 0 -- -- 62
2021-01-14 21:00:00 16.8 33 Nordeste 46 Norte 0 -- -- 65
2021-01-14 20:00:00 17.3 28 Nordeste 39 Nordeste 0 -- -- 62
2021-01-14 19:00:00 17.2 28 Nordeste 40 Nordeste 0 -- -- 68
2021-01-14 18:00:00 17.4 30 Nordeste 46 Nordeste 0 -- -- 68
2021-01-14 17:00:00 17.6 26 Este 39 Este 0 -- -- 61
2021-01-14 16:00:00 18.1 23 Nordeste 39 Este 0 -- -- 60
2021-01-14 15:00:00 17.8 19 Nordeste 34 Nordeste 0 -- -- 56
2021-01-14 14:00:00 17.9 24 Nordeste 37 Nordeste 0 -- -- 61
2021-01-14 13:00:00 18.5 21 Este 32 Este 0 -- -- 56
2021-01-14 12:00:00 18.3 21 Nordeste 32 Nordeste 0 -- -- 59
2021-01-14 11:00:00 17.7 27 Nordeste 34 Nordeste 0 -- -- 63
2021-01-14 10:00:00 17.1 25 Nordeste 32 Nordeste 0 -- -- 66
2021-01-14 09:00:00 16.8 23 Nordeste 32 Nordeste 0 -- -- 68
2021-01-14 08:00:00 16.4 24 Nordeste 36 Nordeste 0 -- -- 69
2021-01-14 07:00:00 16.4 27 Nordeste 37 Nordeste 0 -- -- 74
2021-01-14 06:00:00 16.6 27 Nordeste 36 Nordeste 0 -- -- 74
2021-01-14 05:00:00 16.8 26 Nordeste 37 Nordeste 0 -- -- 73
2021-01-14 04:00:00 16.9 19 Nordeste 24 Nordeste 0 -- -- 71
2021-01-14 03:00:00 16.9 14 Nordeste 22 Nordeste 0 -- -- 70
2021-01-14 02:00:00 17.1 14 Nordeste 26 Nordeste 0 -- -- 66
2021-01-14 01:00:00 17.2 16 Nordeste 24 Nordeste 0 -- -- 66
2021-01-14 00:00:00 17.5 18 Nordeste 22 Nordeste 0 -- -- 62
2021-01-13 23:00:00 17.4 15 Nordeste 20 Nordeste 0 -- -- 61
2021-01-13 22:00:00 17.5 14 Nordeste 22 Nordeste 0 -- -- 63
2021-01-13 21:00:00 17.4 13 Este 19 Nordeste 0 -- -- 59
2021-01-13 20:00:00 17.6 15 Nordeste 19 Este 0 -- -- 60
2021-01-13 19:00:00 17.9 13 Este 18 Este 0 -- -- 56
2021-01-13 18:00:00 18.4 10 Este 18 Este 0 -- -- 52
2021-01-13 17:00:00 18.9 12 Este 18 Nordeste 0 -- -- 52
2021-01-13 16:00:00 19.4 13 Este 20 Este 0 -- -- 45
2021-01-13 15:00:00 19.6 12 Este 20 Este 0 -- -- 51
2021-01-13 14:00:00 19.6 11 Este 18 Este 0 -- -- 52
2021-01-13 13:00:00 19.4 12 Este 21 Este 0 -- -- 53
2021-01-13 12:00:00 19.7 13 Este 22 Nordeste 0 -- -- 54
2021-01-13 11:00:00 18.2 15 Nordeste 25 Nordeste 0 -- -- 70
2021-01-13 10:00:00 17.4 22 Nordeste 41 Norte 0 -- -- 70
2021-01-13 09:00:00 16.9 18 Norte 28 Norte 0 -- -- 69
2021-01-13 08:00:00 16.2 19 Norte 29 Nordeste 0 -- -- 68
2021-01-13 07:00:00 16.2 21 Nordeste 28 Nordeste 0 -- -- 69
2021-01-13 06:00:00 16.3 24 Nordeste 36 Nordeste 0 -- -- 69
2021-01-13 05:00:00 16.1 23 Nordeste 30 Nordeste 0 -- -- 69
2021-01-13 04:00:00 16.1 20 Norte 29 Nordeste 0 -- -- 72
2021-01-13 03:00:00 16 17 Nordeste 28 Norte 0 -- -- 70
2021-01-13 02:00:00 16.1 22 Nordeste 29 Nordeste 0 -- -- 69
2021-01-13 01:00:00 16.2 21 Nordeste 31 Nordeste 0 -- -- 67
2021-01-13 00:00:00 16.3 25 Nordeste 35 Nordeste 0 -- -- 68
2021-01-12 23:00:00 16.4 21 Nordeste 31 Nordeste 0 -- -- 68
2021-01-12 22:00:00 16.6 24 Nordeste 37 Nordeste 0 -- -- 65
2021-01-12 21:00:00 16.7 27 Nordeste 40 Nordeste 0 -- -- 67
2021-01-12 20:00:00 16.8 23 Nordeste 32 Nordeste 0 -- -- 64
2021-01-12 19:00:00 16.9 20 Nordeste 34 Nordeste 0 -- -- 68
2021-01-12 18:00:00 16.9 19 Nordeste 28 Este 0 -- -- 67
2021-01-12 17:00:00 17.3 18 Este 29 Este 0 -- -- 63
2021-01-12 16:00:00 17.2 18 Nordeste 34 Nordeste 0 -- -- 62
2021-01-12 15:00:00 18.2 16 Este 22 Este 0 -- -- 59
2021-01-12 14:00:00 17.9 15 Nordeste 27 Nordeste 0 -- -- 57
2021-01-12 13:00:00 17.2 17 Nordeste 28 Nordeste 0 -- -- 62
2021-01-12 12:00:00 17.9 13 Nordeste 20 Nordeste 0 -- -- 57
2021-01-12 11:00:00 18.1 11 Nordeste 19 Nordeste 0 -- -- 52
2021-01-12 10:00:00 17.6 12 Nordeste 18 Norte 0 -- -- 53
2021-01-12 09:00:00 16.8 12 Nordeste 22 Norte 0 -- -- 61
2021-01-12 08:00:00 16.6 20 Norte 35 Norte 0 -- -- 67
2021-01-12 07:00:00 16.7 22 Nordeste 26 Nordeste 0 -- -- 64
2021-01-12 06:00:00 16.6 16 Nordeste 31 Norte 0 -- -- 67
2021-01-12 05:00:00 16.2 31 Nordeste 39 Nordeste 0 -- -- 67
2021-01-12 04:00:00 16.4 16 Nordeste 22 Nordeste 0 -- -- 68
2021-01-12 03:00:00 16.3 19 Nordeste 25 Nordeste 0 -- -- 72
2021-01-12 02:00:00 16.8 17 Nordeste 24 Nordeste 0 -- -- 69
2021-01-12 01:00:00 16.6 9 Nordeste 14 Nordeste 0 -- -- 70
2021-01-12 00:00:00 16.4 9 Norte 16 Nordeste 0 -- -- 69
2021-01-11 23:00:00 16.2 9 Nordeste 21 Norte 0 -- -- 68
2021-01-11 22:00:00 16.3 12 Norte 21 Norte 0 -- -- 68
2021-01-11 21:00:00 16.5 16 Nordeste 27 Norte 0 -- -- 69
2021-01-11 20:00:00 16.8 22 Norte 34 Norte 0 -- -- 65
2021-01-11 19:00:00 16.8 19 Norte 36 Norte 0 -- -- 67
2021-01-11 18:00:00 17.1 27 Norte 38 Norte 0 -- -- 65
2021-01-11 17:00:00 17.6 28 Norte 38 Norte 0 -- -- 64
2021-01-11 16:00:00 17.8 30 Norte 45 Norte 0 -- -- 62
2021-01-11 15:00:00 18.2 28 Norte 37 Norte 0 -- -- 63
2021-01-11 14:00:00 17.5 21 Norte 37 Norte 0 -- -- 68
2021-01-11 13:00:00 16.6 17 Noroeste 42 Norte 0 -- -- 71
2021-01-11 12:00:00 17.1 31 Norte 45 Norte 0 -- -- 70
2021-01-11 11:00:00 17.4 32 Norte 54 Norte 0 -- -- 70
2021-01-11 10:00:00 16.9 30 Norte 43 Norte 0 -- -- 71
2021-01-11 09:00:00 16.7 22 Norte 39 Norte 0 -- -- 69
2021-01-11 08:00:00 15.8 33 Norte 46 Norte 0 -- -- 67
2021-01-11 07:00:00 15.9 28 Norte 53 Norte 0 -- -- 69
2021-01-11 06:00:00 15.8 35 Norte 49 Norte 0 -- -- 73
2021-01-11 05:00:00 15.7 17 Norte 53 Norte 0 -- -- 70
2021-01-11 04:00:00 16.4 28 Noroeste 45 Norte 0 -- -- 64
2021-01-11 03:00:00 16.3 28 Norte 44 Norte 0 -- -- 58
2021-01-11 02:00:00 16.3 31 Norte 44 Noroeste 0 -- -- 62
2021-01-11 01:00:00 16.6 32 Norte 49 Norte 0 -- -- 55
2021-01-11 00:00:00 16.3 32 Norte 50 Norte 0 -- -- 62
2021-01-10 23:00:00 16.3 30 Norte 54 Norte 0 -- -- 66
2021-01-10 22:00:00 16.8 35 Norte 55 Norte 0 -- -- 59
2021-01-10 21:00:00 16.9 36 Norte 50 Norte 0 -- -- 66
2021-01-10 20:00:00 16.5 34 Norte 58 Norte 0 -- -- 70
2021-01-10 19:00:00 16.1 32 Norte 58 Norte 0.2 -- -- 73
2021-01-10 18:00:00 16.6 37 Norte 55 Norte 0.2 -- -- 70
2021-01-10 17:00:00 16 29 Norte 53 Noroeste 0 -- -- 77
2021-01-10 16:00:00 17.1 31 Noroeste 53 Noroeste 1.4 -- -- 65
2021-01-10 15:00:00 17.4 28 Noroeste 55 Noroeste 0 -- -- 72
2021-01-10 14:00:00 16.8 33 Norte 54 Noroeste 0.2 -- -- 74
2021-01-10 13:00:00 17.3 24 Noroeste 49 Noroeste 0.2 -- -- 67
2021-01-10 12:00:00 17.1 34 Noroeste 47 Noroeste 0 -- -- 70
2021-01-10 11:00:00 17.6 28 Noroeste 43 Noroeste 0 -- -- 62
2021-01-10 10:00:00 16.4 28 Noroeste 55 Noroeste 0.2 -- -- 67
2021-01-10 09:00:00 16.4 37 Noroeste 58 Noroeste 0 -- -- 69
2021-01-10 08:00:00 16.7 32 Noroeste 47 Noroeste 0 -- -- 64
2021-01-10 07:00:00 16.7 28 Noroeste 47 Norte 0 -- -- 62
2021-01-10 06:00:00 16.8 31 Noroeste 47 Noroeste 0 -- -- 60
2021-01-10 05:00:00 17 32 Noroeste 48 Noroeste 0 -- -- 45
2021-01-10 04:00:00 16.8 32 Noroeste 45 Noroeste 0 -- -- 62
2021-01-10 03:00:00 16.4 23 Noroeste 40 Noroeste 0 -- -- 66
2021-01-10 02:00:00 14.7 24 Noroeste 55 Noroeste 0.6 -- -- 71
2021-01-10 01:00:00 15.9 18 Noroeste 50 Norte 0 -- -- 68
2021-01-10 00:00:00 16.6 28 Noroeste 44 Norte 0 -- -- 57
2021-01-09 23:00:00 16.6 31 Noroeste 46 Noroeste 0 -- -- 57
2021-01-09 22:00:00 15.8 21 Noroeste 51 Norte 0 -- -- 67
2021-01-09 21:00:00 16.5 31 Noroeste 48 Noroeste 0 -- -- 57
2021-01-09 20:00:00 16.3 30 Noroeste 46 Norte 0 -- -- 63
2021-01-09 19:00:00 16.3 34 Norte 49 Noroeste 0 -- -- 60
2021-01-09 18:00:00 16.5 37 Norte 51 Norte 0.4 -- -- 61
2021-01-09 17:00:00 15.9 22 Noroeste 53 Noroeste 0 -- -- 65
2021-01-09 16:00:00 17.1 32 Norte 51 Norte 0 -- -- 58
2021-01-09 15:00:00 17.2 28 Noroeste 50 Noroeste 0 -- -- 60
2021-01-09 14:00:00 17.3 31 Noroeste 44 Norte 0 -- -- 57
2021-01-09 13:00:00 17 28 Noroeste 46 Norte 0 -- -- 57
2021-01-09 12:00:00 15.4 41 Norte 64 Norte 0 -- -- 74
2021-01-09 11:00:00 16.5 28 Noroeste 47 Noroeste 0 -- -- 66
2021-01-09 10:00:00 16.2 39 Norte 58 Norte 0 -- -- 72
2021-01-09 09:00:00 16 18 Noroeste 38 Noroeste 0 -- -- 67
2021-01-09 08:00:00 15.4 28 Noroeste 46 Noroeste 0 -- -- 66
2021-01-09 07:00:00 15.4 20 Norte 34 Norte 0 -- -- 68
2021-01-09 06:00:00 14.8 27 Norte 52 Norte 0 -- -- 73
2021-01-09 05:00:00 16.5 18 Noroeste 35 Norte 0 -- -- 58
2021-01-09 04:00:00 15.6 9 Noroeste 37 Noroeste 0.2 -- -- 67
2021-01-09 03:00:00 15.9 14 Norte 37 Norte 0.4 -- -- 70
2021-01-09 02:00:00 16.2 17 Noroeste 35 Norte 0 -- -- 61
2021-01-09 01:00:00 16.7 18 Noroeste 31 Norte 0 -- -- 59
2021-01-09 00:00:00 16.7 21 Noroeste 32 Noroeste 0 -- -- 60
2021-01-08 23:00:00 16.4 19 Noroeste 41 Noroeste 0 -- -- 69
2021-01-08 22:00:00 17.1 25 Noroeste 36 Norte 0.4 -- -- 66
2021-01-08 21:00:00 16.3 22 Norte 48 Norte 1.2 -- -- 77
2021-01-08 20:00:00 17.4 21 Noroeste 35 Noroeste 0 -- -- 63
2021-01-08 19:00:00 17.5 25 Noroeste 41 Noroeste 0 -- -- 67
2021-01-08 18:00:00 17.5 30 Norte 42 Noroeste 0 -- -- 73
2021-01-08 17:00:00 17.7 30 Noroeste 42 Noroeste 0.2 -- -- 67
2021-01-08 16:00:00 18 29 Noroeste 42 Norte 0.2 -- -- 73
2021-01-08 15:00:00 17.3 20 Noroeste 53 Noroeste 2.6 -- -- 76
2021-01-08 14:00:00 18.3 21 Noroeste 41 Noroeste 0 -- -- 73
2021-01-08 13:00:00 18 24 Noroeste 46 Noroeste 0 -- -- 75
2021-01-08 12:00:00 19 26 Noroeste 48 Noroeste 0 -- -- 70
2021-01-08 11:00:00 19.7 27 Oeste 49 Oeste 0 -- -- 70
2021-01-08 10:00:00 19.6 31 Oeste 48 Oeste 0 -- -- 71
2021-01-08 09:00:00 18.9 27 Oeste 52 Oeste 0 -- -- 74
2021-01-08 08:00:00 18.5 26 Oeste 55 Oeste 0 -- -- 75
2021-01-08 07:00:00 19.1 32 Oeste 58 Sudoeste 0 -- -- 76
2021-01-08 06:00:00 19.4 31 Oeste 53 Sudoeste 0 -- -- 78
2021-01-08 05:00:00 19.8 31 Sudoeste 69 Sudoeste 0 -- -- 82
2021-01-08 04:00:00 19.9 44 Sudoeste 77 Sudoeste 0 -- -- 80
2021-01-08 03:00:00 20.4 51 Sudoeste 79 Sudoeste 0 -- -- 78
2021-01-08 02:00:00 20.6 53 Sudoeste 92 Sudoeste 0 -- -- 74
2021-01-08 01:00:00 21.3 34 Sudoeste 72 Sudoeste 0 -- -- 71
2021-01-08 00:00:00 21.4 46 Sudoeste 80 Sudoeste 0 -- -- 68
2021-01-07 23:00:00 21.6 38 Sudoeste 62 Sudoeste 0 -- -- 69
2021-01-07 22:00:00 21.6 40 Sudoeste 67 Sudoeste 0 -- -- 70
2021-01-07 21:00:00 21.8 45 Sudoeste 73 Sudoeste 0 -- -- 71
2021-01-07 20:00:00 21.2 46 Sudoeste 71 Sudoeste 0 -- -- 77
2021-01-07 19:00:00 21.1 45 Sudoeste 68 Sudoeste 0 -- -- 79
2021-01-07 18:00:00 21.1 45 Sudoeste 75 Sudoeste 0 -- -- 80
2021-01-07 17:00:00 21.3 53 Sudoeste 88 Sudoeste 0 -- -- 79
2021-01-07 16:00:00 21.9 50 Sudoeste 80 Sudoeste 0 -- -- 71
2021-01-07 15:00:00 22.2 53 Sudoeste 79 Sudoeste 0.8 -- -- 74
2021-01-07 14:00:00 17.7 19 Oeste 68 Sudoeste 1.6 -- -- 89
2021-01-07 13:00:00 21.6 45 Sudoeste 81 Sudoeste 0 -- -- 73
2021-01-07 12:00:00 21.4 51 Sudoeste 88 Sudoeste 0 -- -- 76
2021-01-07 11:00:00 22.3 57 Sudoeste 81 Sudoeste 0 -- -- 70
2021-01-07 10:00:00 21.7 43 Sudoeste 67 Sudoeste 0 -- -- 71
2021-01-07 09:00:00 21 30 Sudoeste 52 Sudoeste 0 -- -- 73
2021-01-07 08:00:00 20 17 Sudeste 42 Sudoeste 0 -- -- 80
2021-01-07 07:00:00 19.8 15 Sur 50 Sudoeste 0 -- -- 81
2021-01-07 06:00:00 19.8 20 Sudoeste 42 Sudoeste 0 -- -- 83
2021-01-07 05:00:00 20.4 27 Sudoeste 51 Sudoeste 0 -- -- 82
2021-01-07 04:00:00 20 20 Sudoeste 46 Sudoeste 0 -- -- 84
2021-01-07 03:00:00 20.2 28 Sudoeste 44 Sudoeste 0 -- -- 83
2021-01-07 02:00:00 20.2 35 Sudoeste 52 Sudoeste 0 -- -- 83
2021-01-07 01:00:00 20.2 30 Sudoeste 47 Sudoeste 0 -- -- 82
2021-01-07 00:00:00 20.3 30 Sudoeste 42 Sudoeste 0 -- -- 83
2021-01-06 23:00:00 20.3 29 Sudoeste 41 Sudoeste 0 -- -- 83
2021-01-06 22:00:00 20.4 24 Sudoeste 39 Sudoeste 0 -- -- 85
2021-01-06 21:00:00 20.6 20 Sudoeste 34 Sudoeste 0 -- -- 84
2021-01-06 20:00:00 20.6 25 Sudoeste 37 Sudoeste 0 -- -- 85
2021-01-06 19:00:00 20.7 21 Sudoeste 44 Sudoeste 0 -- -- 85
2021-01-06 18:00:00 20.5 27 Sudoeste 49 Sudoeste 3.2 -- -- 88
2021-01-06 17:00:00 21.3 38 Sudoeste 58 Sudoeste 0 -- -- 82
2021-01-06 16:00:00 21.6 37 Sudoeste 58 Sudoeste 0 -- -- 80
2021-01-06 15:00:00 21.6 45 Sudoeste 78 Sudoeste 0 -- -- 79
2021-01-06 14:00:00 21.7 55 Sudoeste 83 Sudoeste 0 -- -- 77
2021-01-06 13:00:00 22.6 53 Sudoeste 80 Sudoeste 0 -- -- 72
2021-01-06 12:00:00 22.2 49 Sudoeste 81 Sudoeste 0 -- -- 72
2021-01-06 11:00:00 22 46 Sudoeste 91 Sudoeste 0 -- -- 73
2021-01-06 10:00:00 21.5 41 Sudoeste 64 Sudoeste 0 -- -- 73
2021-01-06 09:00:00 20.4 46 Sudoeste 66 Sudoeste 0 -- -- 80
2021-01-06 08:00:00 19.9 35 Sudoeste 52 Sudoeste 0 -- -- 79
2021-01-06 07:00:00 19.7 15 Sur 27 Sur 0 -- -- 72
2021-01-06 06:00:00 19.2 15 Sur 45 Sudoeste 0 -- -- 78
2021-01-06 05:00:00 19.6 26 Sudoeste 48 Sudoeste 0 -- -- 78
2021-01-06 04:00:00 19 14 Sur 30 Sudoeste 0 -- -- 82
2021-01-06 03:00:00 19.2 22 Sudoeste 44 Sudoeste 0 -- -- 82
2021-01-06 02:00:00 19.5 25 Sudoeste 36 Sudoeste 0 -- -- 83
2021-01-06 01:00:00 18 5 Sudeste 12 Sur 0 -- -- 81
2021-01-06 00:00:00 17.6 6 Sur 12 Sur 0 -- -- 81
2021-01-05 23:00:00 18.3 10 Sur 18 Sudeste 0 -- -- 82
2021-01-05 22:00:00 18.7 7 Sur 13 Sudeste 0 -- -- 83
2021-01-05 21:00:00 19.6 7 Sur 15 Sudoeste 0 -- -- 80
2021-01-05 20:00:00 19.6 8 Sudoeste 17 Sudoeste 0 -- -- 81
2021-01-05 19:00:00 20.1 13 Sudoeste 24 Oeste 0 -- -- 79
2021-01-05 18:00:00 20.8 16 Oeste 25 Oeste 0 -- -- 73
2021-01-05 17:00:00 21.3 18 Oeste 26 Oeste 0 -- -- 69
2021-01-05 16:00:00 21.6 16 Oeste 30 Noroeste 0 -- -- 70
2021-01-05 15:00:00 21.6 23 Oeste 37 Oeste 0 -- -- 69
2021-01-05 14:00:00 22.4 25 Oeste 43 Oeste 0 -- -- 58
2021-01-05 13:00:00 21.9 18 Oeste 34 Oeste 0 -- -- 72
2021-01-05 12:00:00 22 22 Oeste 36 Oeste 0 -- -- 70
2021-01-05 11:00:00 21.1 21 Oeste 45 Oeste 0 -- -- 77
2021-01-05 10:00:00 21.1 22 Oeste 37 Sudoeste 0 -- -- 76
2021-01-05 09:00:00 20.6 20 Sudoeste 30 Sudoeste 0 -- -- 77
2021-01-05 08:00:00 19.3 18 Sudoeste 27 Sudoeste 0 -- -- 83
2021-01-05 07:00:00 19.2 18 Sudoeste 34 Sudoeste 0 -- -- 84
2021-01-05 06:00:00 19.1 22 Sudoeste 34 Sudoeste 0 -- -- 84
2021-01-05 05:00:00 19.1 24 Sudoeste 41 Sudoeste 0 -- -- 82
2021-01-05 04:00:00 19 26 Sudoeste 49 Sudoeste 0 -- -- 80
2021-01-05 03:00:00 18.7 33 Sudoeste 44 Sudoeste 0 -- -- 77
2021-01-05 02:00:00 18.7 28 Sudoeste 41 Sudoeste 0 -- -- 74
2021-01-05 01:00:00 16.9 0 Calma 6 Sudeste 0 -- -- 74
2021-01-05 00:00:00 16.9 4 Sudeste 12 Sudeste 0 -- -- 74
2021-01-04 23:00:00 16.6 12 Sudeste 18 Sudeste 0 -- -- 75
2021-01-04 22:00:00 16.4 5 Sudeste 11 Sur 0 -- -- 72
2021-01-04 21:00:00 16.6 6 Sudeste 14 Sur 0 -- -- 71
2021-01-04 20:00:00 17.1 8 Sur 16 Sur 0 -- -- 71
2021-01-04 19:00:00 17.4 7 Sur 27 Sudeste 0 -- -- 73
2021-01-04 18:00:00 17.8 17 Sudeste 28 Sudeste 0 -- -- 73
2021-01-04 17:00:00 17.7 23 Sudeste 34 Sudeste 0 -- -- 73
2021-01-04 16:00:00 17.8 25 Sudeste 36 Sudeste 0 -- -- 71
2021-01-04 15:00:00 17.7 24 Sudeste 38 Sudeste 0 -- -- 68
2021-01-04 14:00:00 17.8 23 Sudeste 33 Sudeste 0 -- -- 67
2021-01-04 13:00:00 17.7 22 Sudeste 32 Sudeste 0 -- -- 65
2021-01-04 12:00:00 17.7 18 Sudeste 24 Sudeste 0 -- -- 67
2021-01-04 11:00:00 17.6 18 Sudeste 26 Sudeste 0 -- -- 65
2021-01-04 10:00:00 17.4 19 Sudeste 29 Sudeste 0 -- -- 66
2021-01-04 09:00:00 17 17 Sudeste 22 Este 0 -- -- 68
2021-01-04 08:00:00 16.9 16 Este 27 Sudeste 0 -- -- 69
2021-01-04 07:00:00 16 9 Sudeste 19 Este 0 -- -- 71
2021-01-04 06:00:00 15.6 3 Sur 7 Sudoeste 0 -- -- 72
2021-01-04 05:00:00 16.2 6 Sur 13 Este 0 -- -- 69
2021-01-04 04:00:00 16.7 11 Este 17 Este 0 -- -- 67
2021-01-04 03:00:00 16.6 13 Este 17 Nordeste 0 -- -- 67
2021-01-04 02:00:00 16.6 14 Nordeste 20 Nordeste 0 -- -- 69
2021-01-04 01:00:00 16.7 15 Nordeste 19 Nordeste 0 -- -- 70
2021-01-04 00:00:00 16.8 13 Nordeste 18 Nordeste 0 -- -- 70
2021-01-03 23:00:00 16.9 12 Nordeste 18 Nordeste 0 -- -- 67
2021-01-03 22:00:00 16.9 13 Este 21 Este 0 -- -- 66
2021-01-03 21:00:00 17.2 15 Este 28 Este 0 -- -- 68
2021-01-03 20:00:00 17.1 15 Este 24 Este 0 -- -- 66
2021-01-03 19:00:00 17.2 18 Este 26 Este 0 -- -- 69
2021-01-03 18:00:00 17.4 19 Este 28 Este 0 -- -- 67
2021-01-03 17:00:00 17.6 18 Este 31 Este 0 -- -- 67
2021-01-03 16:00:00 17.7 19 Este 26 Este 0 -- -- 64
2021-01-03 15:00:00 17.9 16 Este 26 Este 0 -- -- 61
2021-01-03 14:00:00 17.8 18 Este 27 Este 0 -- -- 62
2021-01-03 13:00:00 18.2 15 Este 21 Este 0 -- -- 62
2021-01-03 12:00:00 18.3 10 Nordeste 25 Nordeste 0 -- -- 57
2021-01-03 11:00:00 18 20 Nordeste 31 Nordeste 0 -- -- 58
2021-01-03 10:00:00 17.6 27 Nordeste 38 Nordeste 0 -- -- 61
2021-01-03 09:00:00 17.4 25 Nordeste 33 Nordeste 0 -- -- 64
2021-01-03 08:00:00 17.3 24 Nordeste 29 Nordeste 0 -- -- 64
2021-01-03 07:00:00 17.1 18 Nordeste 24 Nordeste 0 -- -- 67
2021-01-03 06:00:00 17.1 13 Nordeste 18 Norte 0 -- -- 66
2021-01-03 05:00:00 17.1 15 Nordeste 28 Nordeste 0 -- -- 61
2021-01-03 04:00:00 17.1 19 Nordeste 24 Nordeste 0 -- -- 69
2021-01-03 03:00:00 17.1 20 Nordeste 35 Nordeste 0 -- -- 67
2021-01-03 02:00:00 17.4 22 Nordeste 35 Nordeste 0 -- -- 70
2021-01-03 01:00:00 17.5 24 Nordeste 32 Nordeste 0 -- -- 64
2021-01-03 00:00:00 17.3 18 Nordeste 26 Nordeste 0 -- -- 63
2021-01-02 23:00:00 17.6 23 Nordeste 27 Norte 0 -- -- 65
2021-01-02 22:00:00 17.5 13 Norte 25 Norte 0 -- -- 60
2021-01-02 21:00:00 17.4 20 Nordeste 36 Norte 0 -- -- 57
2021-01-02 20:00:00 17.7 26 Nordeste 34 Nordeste 0 -- -- 57
2021-01-02 19:00:00 17.8 24 Nordeste 31 Nordeste 0 -- -- 58
2021-01-02 18:00:00 18.1 20 Norte 35 Nordeste 0 -- -- 55
2021-01-02 17:00:00 18.4 15 Norte 28 Norte 0 -- -- 57
2021-01-02 16:00:00 18.4 24 Norte 34 Norte 0 -- -- 69
2021-01-02 15:00:00 18.7 27 Norte 36 Noroeste 0 -- -- 69
2021-01-02 14:00:00 18.8 26 Norte 37 Norte 0 -- -- 62
2021-01-02 13:00:00 19.3 7 Nordeste 14 Nordeste 0 -- -- 49